sensor_id;sensor_type;location;lat;lon;timestamp;pressure;altitude;pressure_sealevel;temperature;humidity
61037;BME280;72210;47.076;15.430;2023-08-30T00:00:01;96144.53;;;16.13;100.00
61037;BME280;72210;47.076;15.430;2023-08-30T00:02:30;96142.25;;;16.18;100.00
61037;BME280;72210;47.076;15.430;2023-08-30T00:04:58;96144.06;;;16.18;100.00
61037;BME280;72210;47.076;15.430;2023-08-30T00:07:25;96140.91;;;16.14;100.00
61037;BME280;72210;47.076;15.430;2023-08-30T00:09:53;96138.81;;;16.18;100.00
61037;BME280;72210;47.076;15.430;2023-08-30T00:12:20;96136.03;;;16.19;100.00
61037;BME280;72210;47.076;15.430;2023-08-30T00:14:47;96143.91;;;16.19;100.00
61037;BME280;72210;47.076;15.430;2023-08-30T00:17:14;96140.97;;;16.22;100.00
61037;BME280;72210;47.076;15.430;2023-08-30T00:19:44;96153.63;;;16.27;100.00
61037;BME280;72210;47.076;15.430;2023-08-30T00:22:11;96150.53;;;16.31;100.00
61037;BME280;72210;47.076;15.430;2023-08-30T00:24:38;96159.06;;;16.33;100.00
61037;BME280;72210;47.076;15.430;2023-08-30T00:27:05;96166.78;;;16.35;100.00
61037;BME280;72210;47.076;15.430;2023-08-30T00:29:33;96166.94;;;16.33;100.00
61037;BME280;72210;47.076;15.430;2023-08-30T00:32:00;96172.03;;;16.35;100.00
61037;BME280;72210;47.076;15.430;2023-08-30T00:34:26;96166.28;;;16.31;100.00
61037;BME280;72210;47.076;15.430;2023-08-30T00:36:55;96164.47;;;16.32;100.00
61037;BME280;72210;47.076;15.430;2023-08-30T00:39:23;96175.47;;;16.27;100.00
61037;BME280;72210;47.076;15.430;2023-08-30T00:41:50;96179.75;;;16.28;100.00
61037;BME280;72210;47.076;15.430;2023-08-30T00:44:17;96188.91;;;16.24;100.00
61037;BME280;72210;47.076;15.430;2023-08-30T00:46:44;96185.78;;;16.21;100.00
61037;BME280;72210;47.076;15.430;2023-08-30T00:49:12;96182.75;;;16.15;100.00
61037;BME280;72210;47.076;15.430;2023-08-30T00:51:39;96190.28;;;16.10;100.00
61037;BME280;72210;47.076;15.430;2023-08-30T00:54:08;96194.75;;;16.10;100.00
61037;BME280;72210;47.076;15.430;2023-08-30T00:56:35;96192.78;;;16.12;100.00
61037;BME280;72210;47.076;15.430;2023-08-30T00:59:02;96204.09;;;16.12;100.00
61037;BME280;72210;47.076;15.430;2023-08-30T01:01:29;96206.72;;;16.12;100.00
61037;BME280;72210;47.076;15.430;2023-08-30T01:03:56;96203.28;;;16.12;100.00
61037;BME280;72210;47.076;15.430;2023-08-30T01:06:23;96202.97;;;16.15;100.00
61037;BME280;72210;47.076;15.430;2023-08-30T01:08:50;96201.69;;;16.19;100.00
61037;BME280;72210;47.076;15.430;2023-08-30T01:11:28;96192.81;;;16.20;100.00
61037;BME280;72210;47.076;15.430;2023-08-30T01:14:00;96192.97;;;16.19;100.00
61037;BME280;72210;47.076;15.430;2023-08-30T01:16:31;96188.03;;;16.15;100.00
61037;BME280;72210;47.076;15.430;2023-08-30T01:18:59;96188.72;;;16.18;100.00
61037;BME280;72210;47.076;15.430;2023-08-30T01:21:36;96192.66;;;16.22;100.00
61037;BME280;72210;47.076;15.430;2023-08-30T01:24:10;96197.44;;;16.26;100.00
61037;BME280;72210;47.076;15.430;2023-08-30T01:26:59;96197.66;;;16.33;100.00
61037;BME280;72210;47.076;15.430;2023-08-30T01:29:28;96195.34;;;16.30;100.00
61037;BME280;72210;47.076;15.430;2023-08-30T01:31:56;96198.13;;;16.28;100.00
61037;BME280;72210;47.076;15.430;2023-08-30T01:34:24;96195.50;;;16.28;100.00
61037;BME280;72210;47.076;15.430;2023-08-30T01:36:52;96203.22;;;16.30;100.00
61037;BME280;72210;47.076;15.430;2023-08-30T01:39:19;96208.31;;;16.31;100.00
61037;BME280;72210;47.076;15.430;2023-08-30T01:41:47;96201.88;;;16.26;100.00
61037;BME280;72210;47.076;15.430;2023-08-30T01:44:16;96212.53;;;16.24;100.00
61037;BME280;72210;47.076;15.430;2023-08-30T01:46:44;96198.59;;;16.24;100.00
61037;BME280;72210;47.076;15.430;2023-08-30T01:49:14;96197.44;;;16.26;100.00
61037;BME280;72210;47.076;15.430;2023-08-30T01:51:41;96197.59;;;16.25;100.00
61037;BME280;72210;47.076;15.430;2023-08-30T01:54:09;96202.19;;;16.23;100.00
61037;BME280;72210;47.076;15.430;2023-08-30T01:56:40;96196.28;;;16.21;100.00
61037;BME280;72210;47.076;15.430;2023-08-30T01:59:07;96202.34;;;16.21;100.00
61037;BME280;72210;47.076;15.430;2023-08-30T02:01:36;96192.97;;;16.19;100.00
61037;BME280;72210;47.076;15.430;2023-08-30T02:04:03;96204.78;;;16.14;100.00
61037;BME280;72210;47.076;15.430;2023-08-30T02:06:35;96192.91;;;16.10;100.00
61037;BME280;72210;47.076;15.430;2023-08-30T02:09:07;96190.28;;;16.10;100.00
61037;BME280;72210;47.076;15.430;2023-08-30T02:11:37;96192.72;;;16.04;100.00
61037;BME280;72210;47.076;15.430;2023-08-30T02:14:08;96189.56;;;16.00;100.00
61037;BME280;72210;47.076;15.430;2023-08-30T02:16:39;96187.56;;;15.94;100.00
61037;BME280;72210;47.076;15.430;2023-08-30T02:19:07;96184.41;;;15.90;100.00
61037;BME280;72210;47.076;15.430;2023-08-30T02:21:36;96185.22;;;15.91;100.00
61037;BME280;72210;47.076;15.430;2023-08-30T02:24:04;96192.00;;;15.93;100.00
61037;BME280;72210;47.076;15.430;2023-08-30T02:26:31;96192.81;;;15.94;100.00
61037;BME280;72210;47.076;15.430;2023-08-30T02:28:58;96190.03;;;15.95;100.00
61037;BME280;72210;47.076;15.430;2023-08-30T02:31:25;96197.75;;;15.97;100.00
61037;BME280;72210;47.076;15.430;2023-08-30T02:33:53;96194.97;;;15.98;100.00
61037;BME280;72210;47.076;15.430;2023-08-30T02:36:21;96192.00;;;15.93;100.00
61037;BME280;72210;47.076;15.430;2023-08-30T02:38:49;96197.41;;;15.92;100.00
61037;BME280;72210;47.076;15.430;2023-08-30T02:41:16;96198.06;;;15.94;100.00
61037;BME280;72210;47.076;15.430;2023-08-30T02:43:43;96204.31;;;15.93;100.00
61037;BME280;72210;47.076;15.430;2023-08-30T02:46:10;96193.25;;;15.89;100.00
61037;BME280;72210;47.076;15.430;2023-08-30T02:48:37;96203.91;;;15.88;100.00
61037;BME280;72210;47.076;15.430;2023-08-30T02:51:05;96205.56;;;15.89;100.00
61037;BME280;72210;47.076;15.430;2023-08-30T02:53:32;96205.06;;;15.85;100.00
61037;BME280;72210;47.076;15.430;2023-08-30T02:55:59;96200.94;;;15.83;100.00
61037;BME280;72210;47.076;15.430;2023-08-30T02:58:26;96202.41;;;15.77;100.00
61037;BME280;72210;47.076;15.430;2023-08-30T03:00:54;96206.91;;;15.75;100.00
61037;BME280;72210;47.076;15.430;2023-08-30T03:03:20;96197.56;;;15.72;100.00
61037;BME280;72210;47.076;15.430;2023-08-30T03:05:47;96201.31;;;15.70;100.00
61037;BME280;72210;47.076;15.430;2023-08-30T03:08:18;96209.03;;;15.71;100.00
61037;BME280;72210;47.076;15.430;2023-08-30T03:10:45;96204.75;;;15.70;100.00
61037;BME280;72210;47.076;15.430;2023-08-30T03:13:12;96199.81;;;15.67;100.00
61037;BME280;72210;47.076;15.430;2023-08-30T03:15:39;96207.00;;;15.65;100.00
61037;BME280;72210;47.076;15.430;2023-08-30T03:18:06;96210.44;;;15.66;100.00
61037;BME280;72210;47.076;15.430;2023-08-30T03:20:34;96208.69;;;15.66;100.00
61037;BME280;72210;47.076;15.430;2023-08-30T03:23:02;96215.03;;;15.64;100.00
61037;BME280;72210;47.076;15.430;2023-08-30T03:25:30;96210.09;;;15.60;100.00
61037;BME280;72210;47.076;15.430;2023-08-30T03:27:57;96205.44;;;15.54;100.00
61037;BME280;72210;47.076;15.430;2023-08-30T03:30:24;96206.72;;;15.50;100.00
61037;BME280;72210;47.076;15.430;2023-08-30T03:32:51;96221.13;;;15.46;100.00
61037;BME280;72210;47.076;15.430;2023-08-30T03:35:20;96215.03;;;15.46;100.00
61037;BME280;72210;47.076;15.430;2023-08-30T03:37:47;96219.97;;;15.49;100.00
61037;BME280;72210;47.076;15.430;2023-08-30T03:40:14;96201.75;;;15.47;100.00
61037;BME280;72210;47.076;15.430;2023-08-30T03:42:43;96195.34;;;15.41;100.00
61037;BME280;72210;47.076;15.430;2023-08-30T03:45:10;96194.94;;;15.36;100.00
61037;BME280;72210;47.076;15.430;2023-08-30T03:47:37;96193.97;;;15.37;100.00
61037;BME280;72210;47.076;15.430;2023-08-30T03:50:06;96190.00;;;15.33;100.00
61037;BME280;72210;47.076;15.430;2023-08-30T03:52:34;96201.78;;;15.29;100.00
61037;BME280;72210;47.076;15.430;2023-08-30T03:55:01;96204.00;;;15.24;100.00
61037;BME280;72210;47.076;15.430;2023-08-30T03:57:28;96210.53;;;15.20;100.00
61037;BME280;72210;47.076;15.430;2023-08-30T03:59:56;96202.28;;;15.15;100.00
61037;BME280;72210;47.076;15.430;2023-08-30T04:02:23;96206.34;;;15.09;100.00
61037;BME280;72210;47.076;15.430;2023-08-30T04:04:50;96207.44;;;15.06;100.00
61037;BME280;72210;47.076;15.430;2023-08-30T04:07:17;96202.50;;;15.03;100.00
61037;BME280;72210;47.076;15.430;2023-08-30T04:09:44;96200.72;;;15.04;100.00
61037;BME280;72210;47.076;15.430;2023-08-30T04:12:11;96209.25;;;15.06;100.00
61037;BME280;72210;47.076;15.430;2023-08-30T04:14:38;96214.50;;;15.06;100.00
61037;BME280;72210;47.076;15.430;2023-08-30T04:17:07;96201.84;;;15.01;100.00
61037;BME280;72210;47.076;15.430;2023-08-30T04:19:34;96202.66;;;15.02;100.00
61037;BME280;72210;47.076;15.430;2023-08-30T04:22:01;96200.72;;;15.04;100.00
61037;BME280;72210;47.076;15.430;2023-08-30T04:24:29;96201.69;;;15.03;100.00
61037;BME280;72210;47.076;15.430;2023-08-30T04:26:56;96202.06;;;15.08;100.00
61037;BME280;72210;47.076;15.430;2023-08-30T04:29:23;96196.81;;;15.08;100.00
61037;BME280;72210;47.076;15.430;2023-08-30T04:31:50;96200.25;;;15.08;100.00
61037;BME280;72210;47.076;15.430;2023-08-30T04:34:19;96199.28;;;15.10;100.00
61037;BME280;72210;47.076;15.430;2023-08-30T04:36:46;96196.81;;;15.08;100.00
61037;BME280;72210;47.076;15.430;2023-08-30T04:39:13;96196.66;;;15.10;100.00
61037;BME280;72210;47.076;15.430;2023-08-30T04:41:40;96196.81;;;15.08;100.00
61037;BME280;72210;47.076;15.430;2023-08-30T04:44:07;96194.19;;;15.08;100.00
61037;BME280;72210;47.076;15.430;2023-08-30T04:46:34;96203.88;;;15.07;100.00
61037;BME280;72210;47.076;15.430;2023-08-30T04:49:02;96204.69;;;15.08;100.00
61037;BME280;72210;47.076;15.430;2023-08-30T04:51:30;96211.44;;;15.11;100.00
61037;BME280;72210;47.076;15.430;2023-08-30T04:53:58;96207.53;;;15.15;100.00
61037;BME280;72210;47.076;15.430;2023-08-30T04:56:25;96205.59;;;15.17;100.00
61037;BME280;72210;47.076;15.430;2023-08-30T04:58:52;96189.41;;;15.21;100.00
61037;BME280;72210;47.076;15.430;2023-08-30T05:01:19;96204.72;;;15.26;100.00
61037;BME280;72210;47.076;15.430;2023-08-30T05:03:46;96193.22;;;15.27;100.00
61037;BME280;72210;47.076;15.430;2023-08-30T05:06:14;96194.28;;;15.34;100.00
61037;BME280;72210;47.076;15.430;2023-08-30T05:08:42;96198.13;;;15.40;100.00
61037;BME280;72210;47.076;15.430;2023-08-30T05:11:10;96204.53;;;15.46;100.00
61037;BME280;72210;47.076;15.430;2023-08-30T05:13:37;96201.16;;;15.53;100.00
61037;BME280;72210;47.076;15.430;2023-08-30T05:16:05;96202.22;;;15.60;100.00
61037;BME280;72210;47.076;15.430;2023-08-30T05:18:32;96204.38;;;15.65;100.00
61037;BME280;72210;47.076;15.430;2023-08-30T05:20:59;96203.94;;;15.70;100.00
61037;BME280;72210;47.076;15.430;2023-08-30T05:23:26;96203.63;;;15.73;100.00
61037;BME280;72210;47.076;15.430;2023-08-30T05:25:55;96204.91;;;15.87;100.00
61037;BME280;72210;47.076;15.430;2023-08-30T05:28:22;96215.97;;;15.98;100.00
61037;BME280;72210;47.076;15.430;2023-08-30T05:30:49;96205.69;;;16.05;100.00
61037;BME280;72210;47.076;15.430;2023-08-30T05:33:16;96211.66;;;16.15;100.00
61037;BME280;72210;47.076;15.430;2023-08-30T05:35:43;96213.81;;;16.20;100.00
61037;BME280;72210;47.076;15.430;2023-08-30T05:38:10;96213.19;;;16.26;100.00
61037;BME280;72210;47.076;15.430;2023-08-30T05:40:37;96218.16;;;16.29;100.00
61037;BME280;72210;47.076;15.430;2023-08-30T05:43:07;96210.41;;;16.28;100.00
61037;BME280;72210;47.076;15.430;2023-08-30T05:45:34;96209.81;;;16.34;100.00
61037;BME280;72210;47.076;15.430;2023-08-30T05:48:01;96213.63;;;16.40;100.00
61037;BME280;72210;47.076;15.430;2023-08-30T05:50:28;96219.38;;;16.43;100.00
61037;BME280;72210;47.076;15.430;2023-08-30T05:52:55;96223.50;;;16.46;100.00
61037;BME280;72210;47.076;15.430;2023-08-30T05:55:22;96221.69;;;16.46;100.00
61037;BME280;72210;47.076;15.430;2023-08-30T05:57:49;96230.91;;;16.50;100.00
61037;BME280;72210;47.076;15.430;2023-08-30T06:00:19;96216.16;;;16.58;100.00
61037;BME280;72210;47.076;15.430;2023-08-30T06:02:46;96228.31;;;16.59;100.00
61037;BME280;72210;47.076;15.430;2023-08-30T06:05:13;96230.94;;;16.59;100.00
61037;BME280;72210;47.076;15.430;2023-08-30T06:07:40;96227.69;;;16.65;100.00
61037;BME280;72210;47.076;15.430;2023-08-30T06:10:08;96229.06;;;16.77;100.00
61037;BME280;72210;47.076;15.430;2023-08-30T06:12:36;96236.31;;;16.83;100.00
61037;BME280;72210;47.076;15.430;2023-08-30T06:15:04;96239.22;;;16.98;100.00
61037;BME280;72210;47.076;15.430;2023-08-30T06:17:33;96243.34;;;17.09;100.00
61037;BME280;72210;47.076;15.430;2023-08-30T06:20:00;96241.06;;;17.22;100.00
61037;BME280;72210;47.076;15.430;2023-08-30T06:22:27;96244.41;;;17.33;100.00
61037;BME280;72210;47.076;15.430;2023-08-30T06:24:54;96242.78;;;17.48;100.00
61037;BME280;72210;47.076;15.430;2023-08-30T06:27:22;96242.63;;;17.66;100.00
61037;BME280;72210;47.076;15.430;2023-08-30T06:29:49;96244.28;;;17.75;100.00
61037;BME280;72210;47.076;15.430;2023-08-30T06:32:17;96239.50;;;17.87;100.00
61037;BME280;72210;47.076;15.430;2023-08-30T06:34:45;96252.72;;;18.04;100.00
61037;BME280;72210;47.076;15.430;2023-08-30T06:37:12;96248.41;;;18.19;100.00
61037;BME280;72210;47.076;15.430;2023-08-30T06:39:40;96248.56;;;18.26;100.00
61037;BME280;72210;47.076;15.430;2023-08-30T06:42:07;96253.69;;;18.27;100.00
61037;BME280;72210;47.076;15.430;2023-08-30T06:44:34;96252.50;;;18.38;100.00
61037;BME280;72210;47.076;15.430;2023-08-30T06:47:02;96256.78;;;18.47;100.00
61037;BME280;72210;47.076;15.430;2023-08-30T06:49:31;96256.41;;;18.59;100.00
61037;BME280;72210;47.076;15.430;2023-08-30T06:52:00;96254.09;;;18.64;100.00
61037;BME280;72210;47.076;15.430;2023-08-30T06:54:27;96255.88;;;18.72;100.00
61037;BME280;72210;47.076;15.430;2023-08-30T06:56:59;96260.47;;;18.78;100.00
61037;BME280;72210;47.076;15.430;2023-08-30T06:59:26;96259.81;;;18.76;100.00
61037;BME280;72210;47.076;15.430;2023-08-30T07:01:54;96263.94;;;18.70;100.00
61037;BME280;72210;47.076;15.430;2023-08-30T07:04:21;96257.53;;;18.73;100.00
61037;BME280;72210;47.076;15.430;2023-08-30T07:06:49;96263.94;;;18.78;100.00
61037;BME280;72210;47.076;15.430;2023-08-30T07:09:17;96258.00;;;18.84;100.00
61037;BME280;72210;47.076;15.430;2023-08-30T07:11:48;96263.25;;;18.93;100.00
61037;BME280;72210;47.076;15.430;2023-08-30T07:14:16;96268.16;;;19.04;100.00
61037;BME280;72210;47.076;15.430;2023-08-30T07:16:43;96266.94;;;19.15;100.00
61037;BME280;72210;47.076;15.430;2023-08-30T07:19:10;96273.03;;;19.24;100.00
61037;BME280;72210;47.076;15.430;2023-08-30T07:21:38;96275.44;;;19.33;100.00
61037;BME280;72210;47.076;15.430;2023-08-30T07:24:06;96282.66;;;19.40;100.00
61037;BME280;72210;47.076;15.430;2023-08-30T07:26:36;96279.97;;;19.48;100.00
61037;BME280;72210;47.076;15.430;2023-08-30T07:29:04;96277.06;;;19.66;100.00
61037;BME280;72210;47.076;15.430;2023-08-30T07:31:31;96279.63;;;19.82;100.00
61037;BME280;72210;47.076;15.430;2023-08-30T07:33:59;96279.75;;;19.89;100.00
61037;BME280;72210;47.076;15.430;2023-08-30T07:36:26;96290.59;;;19.94;100.00
61037;BME280;72210;47.076;15.430;2023-08-30T07:39:10;96291.75;;;19.91;100.00
61037;BME280;72210;47.076;15.430;2023-08-30T07:41:39;96291.75;;;19.91;100.00
61037;BME280;72210;47.076;15.430;2023-08-30T07:44:07;96293.31;;;19.86;100.00
61037;BME280;72210;47.076;15.430;2023-08-30T07:46:34;96295.31;;;19.76;100.00
61037;BME280;72210;47.076;15.430;2023-08-30T07:49:01;96299.78;;;19.75;100.00
61037;BME280;72210;47.076;15.430;2023-08-30T07:51:29;96299.59;;;19.85;100.00
61037;BME280;72210;47.076;15.430;2023-08-30T07:53:56;96306.88;;;19.83;98.45
61037;BME280;72210;47.076;15.430;2023-08-30T07:56:23;96306.38;;;19.79;98.46
61037;BME280;72210;47.076;15.430;2023-08-30T07:58:53;96306.88;;;19.74;96.95
61037;BME280;72210;47.076;15.430;2023-08-30T08:01:21;96300.91;;;19.81;98.19
61037;BME280;72210;47.076;15.430;2023-08-30T08:03:48;96314.81;;;19.83;97.35
61037;BME280;72210;47.076;15.430;2023-08-30T08:06:31;96321.41;;;19.79;96.01
61037;BME280;72210;47.076;15.430;2023-08-30T08:09:00;96317.91;;;19.86;96.90
61037;BME280;72210;47.076;15.430;2023-08-30T08:11:28;96320.56;;;20.09;96.96
61037;BME280;72210;47.076;15.430;2023-08-30T08:13:56;96314.13;;;20.27;94.04
61037;BME280;72210;47.076;15.430;2023-08-30T08:16:23;96311.22;;;20.37;95.72
61037;BME280;72210;47.076;15.430;2023-08-30T08:18:51;96315.97;;;20.41;96.50
61037;BME280;72210;47.076;15.430;2023-08-30T08:21:18;96323.97;;;20.18;95.84
61037;BME280;72210;47.076;15.430;2023-08-30T08:23:45;96319.91;;;20.31;98.45
61037;BME280;72210;47.076;15.430;2023-08-30T08:26:12;96323.28;;;20.39;96.53
61037;BME280;72210;47.076;15.430;2023-08-30T08:28:39;96326.06;;;20.61;95.62
61037;BME280;72210;47.076;15.430;2023-08-30T08:31:09;96329.28;;;20.86;95.23
61037;BME280;72210;47.076;15.430;2023-08-30T08:33:36;96323.38;;;21.14;94.98
61037;BME280;72210;47.076;15.430;2023-08-30T08:36:04;96327.19;;;21.26;94.04
61037;BME280;72210;47.076;15.430;2023-08-30T08:38:35;96329.28;;;21.31;91.03
61037;BME280;72210;47.076;15.430;2023-08-30T08:41:04;96320.34;;;21.32;90.75
61037;BME280;72210;47.076;15.430;2023-08-30T08:43:33;96319.81;;;21.22;89.75
61037;BME280;72210;47.076;15.430;2023-08-30T08:46:00;96324.63;;;21.33;88.39
61037;BME280;72210;47.076;15.430;2023-08-30T08:48:31;96320.81;;;21.50;84.92
61037;BME280;72210;47.076;15.430;2023-08-30T08:50:59;96321.41;;;21.67;81.39
61037;BME280;72210;47.076;15.430;2023-08-30T08:53:27;96323.13;;;21.75;79.31
61037;BME280;72210;47.076;15.430;2023-08-30T08:55:58;96322.34;;;21.60;77.20
61037;BME280;72210;47.076;15.430;2023-08-30T08:58:25;96324.13;;;21.74;78.43
61037;BME280;72210;47.076;15.430;2023-08-30T09:00:53;96319.03;;;21.94;78.37
61037;BME280;72210;47.076;15.430;2023-08-30T09:03:21;96319.91;;;22.23;78.14
61037;BME280;72210;47.076;15.430;2023-08-30T09:05:51;96310.25;;;22.37;73.97
61037;BME280;72210;47.076;15.430;2023-08-30T09:08:19;96317.63;;;22.41;74.00
61037;BME280;72210;47.076;15.430;2023-08-30T09:10:47;96320.38;;;22.48;75.00
61037;BME280;72210;47.076;15.430;2023-08-30T09:13:14;96317.50;;;22.50;75.33
61037;BME280;72210;47.076;15.430;2023-08-30T09:15:41;96316.63;;;22.71;72.20
61037;BME280;72210;47.076;15.430;2023-08-30T09:18:15;96320.00;;;22.86;67.58
61037;BME280;72210;47.076;15.430;2023-08-30T09:20:42;96314.56;;;23.29;68.29
61037;BME280;72210;47.076;15.430;2023-08-30T09:23:17;96305.94;;;23.76;66.20
61037;BME280;72210;47.076;15.430;2023-08-30T09:25:46;96308.81;;;23.88;64.12
61037;BME280;72210;47.076;15.430;2023-08-30T09:28:14;96310.25;;;23.83;64.63
61037;BME280;72210;47.076;15.430;2023-08-30T09:30:41;96308.22;;;23.86;65.33
61037;BME280;72210;47.076;15.430;2023-08-30T09:33:08;96313.00;;;24.57;63.38
61037;BME280;72210;47.076;15.430;2023-08-30T09:35:43;96312.13;;;25.62;56.80
61037;BME280;72210;47.076;15.430;2023-08-30T09:38:18;96303.44;;;26.69;50.09
61037;BME280;72210;47.076;15.430;2023-08-30T09:40:45;96306.94;;;28.11;46.38
61037;BME280;72210;47.076;15.430;2023-08-30T09:43:13;96304.50;;;28.21;44.87
61037;BME280;72210;47.076;15.430;2023-08-30T09:45:40;96308.66;;;27.75;45.47
61037;BME280;72210;47.076;15.430;2023-08-30T09:48:08;96317.44;;;27.08;47.58
61037;BME280;72210;47.076;15.430;2023-08-30T09:50:36;96307.88;;;26.50;47.42
61037;BME280;72210;47.076;15.430;2023-08-30T09:53:06;96294.34;;;25.88;50.92
61037;BME280;72210;47.076;15.430;2023-08-30T09:55:36;96300.16;;;25.26;53.83
61037;BME280;72210;47.076;15.430;2023-08-30T09:58:04;96300.88;;;24.95;55.92
61037;BME280;72210;47.076;15.430;2023-08-30T10:00:32;96289.22;;;24.42;56.16
61037;BME280;72210;47.076;15.430;2023-08-30T10:03:00;96293.34;;;24.18;59.59
61037;BME280;72210;47.076;15.430;2023-08-30T10:05:47;96298.75;;;23.83;60.72
61037;BME280;72210;47.076;15.430;2023-08-30T10:08:15;96289.91;;;23.56;62.88
61037;BME280;72210;47.076;15.430;2023-08-30T10:10:45;96292.09;;;23.39;63.91
61037;BME280;72210;47.076;15.430;2023-08-30T10:13:13;96287.72;;;23.18;64.76
61037;BME280;72210;47.076;15.430;2023-08-30T10:15:45;96289.00;;;23.35;65.79
61037;BME280;72210;47.076;15.430;2023-08-30T10:18:17;96284.28;;;23.24;65.09
61037;BME280;72210;47.076;15.430;2023-08-30T10:20:46;96283.47;;;23.23;65.68
61037;BME280;72210;47.076;15.430;2023-08-30T10:23:16;96275.31;;;23.32;66.80
61037;BME280;72210;47.076;15.430;2023-08-30T10:25:48;96279.22;;;23.36;65.50
61037;BME280;72210;47.076;15.430;2023-08-30T10:28:19;96276.56;;;23.42;65.63
61037;BME280;72210;47.076;15.430;2023-08-30T10:30:47;96278.84;;;23.45;65.48
61037;BME280;72210;47.076;15.430;2023-08-30T10:33:15;96281.75;;;23.57;65.99
61037;BME280;72210;47.076;15.430;2023-08-30T10:35:49;96284.06;;;23.25;65.08
61037;BME280;72210;47.076;15.430;2023-08-30T10:38:24;96285.28;;;22.88;67.94
61037;BME280;72210;47.076;15.430;2023-08-30T10:40:54;96282.31;;;22.69;70.77
61037;BME280;72210;47.076;15.430;2023-08-30T10:43:33;96277.56;;;22.58;70.97
61037;BME280;72210;47.076;15.430;2023-08-30T10:46:02;96277.03;;;22.41;70.92
61037;BME280;72210;47.076;15.430;2023-08-30T10:48:36;96274.69;;;22.53;70.31
61037;BME280;72210;47.076;15.430;2023-08-30T10:51:05;96266.81;;;22.73;71.79
61037;BME280;72210;47.076;15.430;2023-08-30T10:53:33;96272.31;;;23.06;69.14
61037;BME280;72210;47.076;15.430;2023-08-30T10:56:07;96288.56;;;22.90;67.87
61037;BME280;72210;47.076;15.430;2023-08-30T10:58:41;96294.66;;;22.84;69.43
61037;BME280;72210;47.076;15.430;2023-08-30T11:01:10;96289.38;;;23.25;67.43
61037;BME280;72210;47.076;15.430;2023-08-30T11:03:37;96291.13;;;23.46;65.40
61037;BME280;72210;47.076;15.430;2023-08-30T11:06:05;96286.28;;;23.77;63.81
61037;BME280;72210;47.076;15.430;2023-08-30T11:08:35;96288.59;;;24.80;58.14
61037;BME280;72210;47.076;15.430;2023-08-30T11:11:07;96287.34;;;26.50;51.68
61037;BME280;72210;47.076;15.430;2023-08-30T11:13:35;96285.78;;;28.33;46.33
61037;BME280;72210;47.076;15.430;2023-08-30T11:16:03;96284.28;;;28.49;44.98
61037;BME280;72210;47.076;15.430;2023-08-30T11:18:33;96285.97;;;27.77;43.70
61037;BME280;72210;47.076;15.430;2023-08-30T11:21:03;96289.09;;;27.07;45.11
61037;BME280;72210;47.076;15.430;2023-08-30T11:23:33;96282.91;;;26.69;47.18
61037;BME280;72210;47.076;15.430;2023-08-30T11:26:01;96279.06;;;27.21;46.61
61037;BME280;72210;47.076;15.430;2023-08-30T11:28:30;96286.94;;;28.25;42.25
61037;BME280;72210;47.076;15.430;2023-08-30T11:30:57;96279.19;;;29.88;38.16
61037;BME280;72210;47.076;15.430;2023-08-30T11:33:24;96278.97;;;30.06;38.55
61037;BME280;72210;47.076;15.430;2023-08-30T11:35:51;96288.50;;;30.82;36.29
61037;BME280;72210;47.076;15.430;2023-08-30T11:38:21;96280.66;;;31.86;34.30
61037;BME280;72210;47.076;15.430;2023-08-30T11:40:49;96277.78;;;32.57;32.69
61037;BME280;72210;47.076;15.430;2023-08-30T11:43:17;96278.41;;;32.65;32.54
61037;BME280;72210;47.076;15.430;2023-08-30T11:45:45;96277.22;;;31.96;33.03
61037;BME280;72210;47.076;15.430;2023-08-30T11:48:13;96272.56;;;31.14;34.01
61037;BME280;72210;47.076;15.430;2023-08-30T11:50:41;96282.50;;;30.58;35.57
61037;BME280;72210;47.076;15.430;2023-08-30T11:53:15;96271.00;;;30.29;35.47
61037;BME280;72210;47.076;15.430;2023-08-30T11:55:43;96270.56;;;30.03;35.99
61037;BME280;72210;47.076;15.430;2023-08-30T11:58:11;96268.44;;;29.59;36.83
61037;BME280;72210;47.076;15.430;2023-08-30T12:00:38;96269.28;;;28.83;37.41
61037;BME280;72210;47.076;15.430;2023-08-30T12:03:07;96270.28;;;28.35;39.09
61037;BME280;72210;47.076;15.430;2023-08-30T12:05:35;96266.16;;;28.63;39.69
61037;BME280;72210;47.076;15.430;2023-08-30T12:08:02;96261.44;;;29.87;37.07
61037;BME280;72210;47.076;15.430;2023-08-30T12:10:30;96254.72;;;30.01;36.90
61037;BME280;72210;47.076;15.430;2023-08-30T12:12:57;96249.00;;;29.69;37.16
61037;BME280;72210;47.076;15.430;2023-08-30T12:15:25;96253.66;;;28.92;37.58
61037;BME280;72210;47.076;15.430;2023-08-30T12:17:52;96257.63;;;28.54;38.95
61037;BME280;72210;47.076;15.430;2023-08-30T12:20:21;96249.88;;;27.99;40.14
61037;BME280;72210;47.076;15.430;2023-08-30T12:22:48;96247.69;;;27.28;41.56
61037;BME280;72210;47.076;15.430;2023-08-30T12:25:18;96254.06;;;26.53;42.98
61037;BME280;72210;47.076;15.430;2023-08-30T12:27:46;96250.00;;;25.93;44.82
61037;BME280;72210;47.076;15.430;2023-08-30T12:30:14;96236.63;;;25.68;46.16
61037;BME280;72210;47.076;15.430;2023-08-30T12:32:43;96238.59;;;25.48;47.17
61037;BME280;72210;47.076;15.430;2023-08-30T12:35:10;96237.78;;;25.47;47.95
61037;BME280;72210;47.076;15.430;2023-08-30T12:37:39;96243.13;;;25.47;47.52
61037;BME280;72210;47.076;15.430;2023-08-30T12:40:07;96240.50;;;25.40;49.07
61037;BME280;72210;47.076;15.430;2023-08-30T12:42:34;96246.09;;;25.19;50.41
61037;BME280;72210;47.076;15.430;2023-08-30T12:45:02;96243.56;;;24.79;53.80
61037;BME280;72210;47.076;15.430;2023-08-30T12:47:29;96251.78;;;24.17;56.18